METAR Data
IDs: Format: Raw Decoded Include TAF

Data at: 0041 UTC 01 Mar 2021

VOBL 010030Z VRB01KT 3000 BR FEW008 18/12 Q1016 TEMPO 2000 BR